createdAt,value
2023-09-11T00:01:40.392Z,15.35
2023-09-11T00:04:08.356Z,14.77
2023-09-11T00:06:35.297Z,15.23
2023-09-11T00:09:02.263Z,15.00
2023-09-11T00:11:29.046Z,14.32
2023-09-11T00:13:55.945Z,14.60
2023-09-11T00:16:22.692Z,15.55
2023-09-11T00:18:49.510Z,14.73
2023-09-11T00:21:16.244Z,13.70
2023-09-11T00:23:43.081Z,14.67
2023-09-11T00:26:10.018Z,14.57
2023-09-11T00:28:37.060Z,13.77
2023-09-11T00:31:04.028Z,13.77
2023-09-11T00:33:30.836Z,14.23
2023-09-11T00:35:58.487Z,13.65
2023-09-11T00:38:25.565Z,14.25
2023-09-11T00:40:53.702Z,13.82
2023-09-11T00:43:20.484Z,14.15
2023-09-11T00:45:47.846Z,14.40
2023-09-11T00:48:15.145Z,13.75
2023-09-11T00:50:45.456Z,14.40
2023-09-11T00:53:13.157Z,13.95
2023-09-11T00:55:40.460Z,13.23
2023-09-11T00:58:07.594Z,14.05
2023-09-11T01:00:34.521Z,13.57
2023-09-11T01:03:01.538Z,14.00
2023-09-11T01:05:30.452Z,14.27
2023-09-11T01:07:57.315Z,13.55
2023-09-11T01:10:24.230Z,14.73
2023-09-11T01:12:51.162Z,14.38
2023-09-11T01:15:18.217Z,14.23
2023-09-11T01:17:58.565Z,13.77
2023-09-11T01:20:37.210Z,13.45
2023-09-11T01:23:21.745Z,13.85
2023-09-11T01:26:26.789Z,14.23
2023-09-11T01:29:19.827Z,14.60
2023-09-11T01:31:48.229Z,14.52
2023-09-11T01:34:15.165Z,14.35
2023-09-11T01:36:42.121Z,15.15
2023-09-11T01:39:09.420Z,15.47
2023-09-11T01:41:45.530Z,13.90
2023-09-11T01:44:30.871Z,14.35
2023-09-11T01:46:58.838Z,13.80
2023-09-11T01:49:26.859Z,13.95
2023-09-11T01:51:54.256Z,14.05
2023-09-11T01:54:21.851Z,13.35
2023-09-11T01:59:19.179Z,13.68
2023-09-11T02:01:46.229Z,14.48
2023-09-11T02:04:13.536Z,13.07
2023-09-11T02:06:40.482Z,13.15
2023-09-11T02:09:07.484Z,13.03
2023-09-11T02:11:34.313Z,13.27
2023-09-11T02:14:01.182Z,12.37
2023-09-11T02:16:28.243Z,14.50
2023-09-11T02:18:55.079Z,13.35
2023-09-11T02:21:22.396Z,12.47
2023-09-11T02:23:49.287Z,14.05
2023-09-11T02:26:16.213Z,12.68
2023-09-11T02:28:43.386Z,13.87
2023-09-11T02:31:10.528Z,12.57
2023-09-11T02:33:37.468Z,12.73
2023-09-11T02:36:05.237Z,12.43
2023-09-11T02:38:33.210Z,12.32
2023-09-11T02:41:09.216Z,12.88
2023-09-11T02:43:37.524Z,12.57
2023-09-11T02:46:04.593Z,11.93
2023-09-11T02:48:33.783Z,12.30
2023-09-11T02:51:00.873Z,12.73
2023-09-11T02:53:27.761Z,12.35
2023-09-11T02:55:54.553Z,12.00
2023-09-11T02:58:21.287Z,13.03
2023-09-11T03:00:48.214Z,13.30
2023-09-11T03:03:15.168Z,13.20
2023-09-11T03:05:42.564Z,16.40
2023-09-11T03:08:09.492Z,13.77
2023-09-11T03:10:36.647Z,13.18
2023-09-11T03:13:05.019Z,13.57
2023-09-11T03:15:32.188Z,15.80
2023-09-11T03:17:59.536Z,14.30
2023-09-11T03:20:26.362Z,13.63
2023-09-11T03:22:55.255Z,13.90
2023-09-11T03:25:22.157Z,13.25
2023-09-11T03:27:49.003Z,13.02
2023-09-11T03:30:15.916Z,14.43
2023-09-11T03:32:42.771Z,11.83
2023-09-11T03:35:09.681Z,12.60
2023-09-11T03:37:37.305Z,13.00
2023-09-11T03:40:24.609Z,13.57
2023-09-11T03:45:18.183Z,12.83
2023-09-11T03:47:45.005Z,12.63
2023-09-11T03:50:11.937Z,11.57
2023-09-11T03:52:38.799Z,13.13
2023-09-11T03:55:05.748Z,11.80
2023-09-11T03:57:32.715Z,11.95
2023-09-11T03:59:59.608Z,12.05
2023-09-11T04:02:26.578Z,11.90
2023-09-11T04:04:53.370Z,13.00
2023-09-11T04:07:20.161Z,12.63
2023-09-11T04:09:46.955Z,12.57
2023-09-11T04:12:19.362Z,13.53
2023-09-11T04:14:47.241Z,12.65
2023-09-11T04:17:13.996Z,12.68
2023-09-11T04:19:40.969Z,12.23
2023-09-11T04:22:08.306Z,12.40
2023-09-11T04:24:35.074Z,12.45
2023-09-11T04:27:02.374Z,11.87
2023-09-11T04:29:30.487Z,13.68
2023-09-11T04:31:57.577Z,11.82
2023-09-11T04:34:24.501Z,12.27
2023-09-11T04:36:51.571Z,12.13
2023-09-11T04:39:18.725Z,12.80
2023-09-11T04:41:45.722Z,11.80
2023-09-11T04:44:12.498Z,12.80
2023-09-11T04:46:39.381Z,12.27
2023-09-11T04:49:06.623Z,11.63
2023-09-11T04:51:33.625Z,16.80
2023-09-11T04:54:00.563Z,14.67
2023-09-11T04:56:27.486Z,13.00
2023-09-11T04:58:54.235Z,11.53
2023-09-11T05:01:21.164Z,11.67
2023-09-11T05:03:48.140Z,12.25
2023-09-11T05:06:15.613Z,12.43
2023-09-11T05:09:02.217Z,12.50
2023-09-11T05:11:29.183Z,28.83
2023-09-11T05:13:56.012Z,13.73
2023-09-11T05:16:22.822Z,13.73
2023-09-11T05:18:49.788Z,23.10
2023-09-11T05:21:16.676Z,17.00
2023-09-11T05:23:44.418Z,12.40
2023-09-11T05:26:11.509Z,12.63
2023-09-11T05:28:38.574Z,12.10
2023-09-11T05:31:06.700Z,11.65
2023-09-11T05:33:33.698Z,11.05
2023-09-11T05:36:00.782Z,12.98
2023-09-11T05:38:27.669Z,12.20
2023-09-11T05:40:54.474Z,12.30
2023-09-11T05:43:21.270Z,12.27
2023-09-11T05:45:48.344Z,12.50
2023-09-11T05:48:15.765Z,11.35
2023-09-11T05:50:42.848Z,11.10
2023-09-11T05:53:09.829Z,12.38
2023-09-11T05:55:36.812Z,10.80
2023-09-11T05:58:04.020Z,10.70
2023-09-11T06:00:31.138Z,11.18
2023-09-11T06:02:58.199Z,11.98
2023-09-11T06:05:26.584Z,11.35
2023-09-11T06:07:53.623Z,12.40
2023-09-11T06:10:20.497Z,10.98
2023-09-11T06:12:47.506Z,10.87
2023-09-11T06:15:14.434Z,10.82
2023-09-11T06:17:45.090Z,10.75
2023-09-11T06:20:17.419Z,10.70
2023-09-11T06:22:44.929Z,10.13
2023-09-11T06:25:11.992Z,10.95
2023-09-11T06:27:38.766Z,10.25
2023-09-11T06:33:40.387Z,10.63
2023-09-11T06:36:07.406Z,10.23
2023-09-11T06:38:34.170Z,10.43
2023-09-11T06:41:01.013Z,10.43
2023-09-11T06:43:27.869Z,10.20
2023-09-11T06:45:54.695Z,10.03
2023-09-11T06:48:24.049Z,9.37
2023-09-11T06:50:54.702Z,9.27
2023-09-11T06:53:21.681Z,10.02
2023-09-11T06:55:49.301Z,9.88
2023-09-11T06:58:16.610Z,10.25
2023-09-11T07:00:43.607Z,9.00
2023-09-11T07:03:10.665Z,8.55
2023-09-11T07:05:40.109Z,8.20
2023-09-11T07:08:07.313Z,8.90
2023-09-11T07:10:40.688Z,8.50
2023-09-11T07:13:08.025Z,8.27
2023-09-11T07:15:34.809Z,8.83
2023-09-11T07:18:01.878Z,8.60
2023-09-11T07:20:29.046Z,8.85
2023-09-11T07:22:55.811Z,7.95
2023-09-11T07:25:24.916Z,8.07
2023-09-11T07:27:55.253Z,7.13
2023-09-11T07:30:22.134Z,7.55
2023-09-11T07:32:49.147Z,7.40
2023-09-11T07:37:43.174Z,7.65
2023-09-11T07:40:10.218Z,6.97
2023-09-11T07:42:37.806Z,7.10
2023-09-11T07:45:04.955Z,7.45
2023-09-11T07:47:32.041Z,7.32
2023-09-11T07:49:59.085Z,6.88
2023-09-11T07:52:25.836Z,6.80
2023-09-11T07:54:52.588Z,6.63
2023-09-11T07:57:19.392Z,7.05
2023-09-11T07:59:46.299Z,6.20
2023-09-11T08:02:13.110Z,6.85
2023-09-11T08:04:40.789Z,5.85
2023-09-11T08:07:07.786Z,6.28
2023-09-11T08:09:34.566Z,6.70
2023-09-11T08:12:06.255Z,6.63
2023-09-11T08:14:33.131Z,6.88
2023-09-11T08:17:00.594Z,7.05
2023-09-11T08:19:27.383Z,7.30
2023-09-11T08:21:55.747Z,6.85
2023-09-11T08:24:24.256Z,7.00
2023-09-11T08:26:51.082Z,6.35
2023-09-11T08:29:19.969Z,5.95
2023-09-11T08:31:47.147Z,6.93
2023-09-11T08:39:08.916Z,6.22
2023-09-11T08:41:36.813Z,6.63
2023-09-11T08:44:03.747Z,5.68
2023-09-11T08:46:34.855Z,6.13
2023-09-11T08:49:04.129Z,6.40
2023-09-11T08:51:38.675Z,5.93
2023-09-11T08:54:06.377Z,6.68
2023-09-11T08:56:33.485Z,6.97
2023-09-11T09:01:29.433Z,7.03
2023-09-11T09:03:58.030Z,5.95
2023-09-11T09:06:25.271Z,6.80
2023-09-11T09:11:21.883Z,5.75
2023-09-11T09:13:48.745Z,5.70
2023-09-11T09:16:15.574Z,5.93
2023-09-11T09:18:50.842Z,5.85
2023-09-11T09:21:20.364Z,6.40
2023-09-11T09:23:50.070Z,6.75
2023-09-11T09:26:19.414Z,6.15
2023-09-11T09:28:55.475Z,6.03
2023-09-11T09:31:24.428Z,5.53
2023-09-11T09:33:58.209Z,6.60
2023-09-11T09:36:25.204Z,5.85
2023-09-11T09:38:52.836Z,6.50
2023-09-11T09:41:22.514Z,5.75
2023-09-11T09:43:54.994Z,6.10
2023-09-11T09:46:23.990Z,5.85
2023-09-11T09:48:51.441Z,5.50
2023-09-11T09:51:18.382Z,5.55
2023-09-11T09:53:48.043Z,5.45
2023-09-11T09:56:16.046Z,5.80
2023-09-11T09:58:45.962Z,5.65
2023-09-11T10:01:16.256Z,5.95
2023-09-11T10:03:48.143Z,5.55
2023-09-11T10:06:24.435Z,5.10
2023-09-11T10:09:12.602Z,5.50
2023-09-11T10:11:41.213Z,6.05
2023-09-11T10:14:09.959Z,6.63
2023-09-11T10:16:37.152Z,5.82
2023-09-11T10:19:04.783Z,5.75
2023-09-11T10:21:33.476Z,5.85
2023-09-11T10:24:00.647Z,6.53
2023-09-11T10:26:41.737Z,6.70
2023-09-11T10:29:12.157Z,5.63
2023-09-11T10:31:54.943Z,5.97
2023-09-11T10:34:22.504Z,5.70
2023-09-11T10:36:58.262Z,5.60
2023-09-11T10:39:25.853Z,6.13
2023-09-11T10:41:53.364Z,6.03
2023-09-11T10:44:20.562Z,5.75
2023-09-11T10:46:51.959Z,5.93
2023-09-11T10:49:21.235Z,6.45
2023-09-11T10:51:49.231Z,5.50
2023-09-11T10:54:25.283Z,6.07
2023-09-11T10:56:53.300Z,6.72
2023-09-11T10:59:23.914Z,6.03
2023-09-11T11:01:51.705Z,6.20
2023-09-11T11:04:22.160Z,5.07
2023-09-11T11:06:52.563Z,5.07
2023-09-11T11:09:34.718Z,6.20
2023-09-11T11:12:08.010Z,5.03
2023-09-11T11:14:35.428Z,6.20
2023-09-11T11:17:04.959Z,7.10
2023-09-11T11:19:37.231Z,5.15
2023-09-11T11:22:08.176Z,6.00
2023-09-11T11:24:50.734Z,5.40
2023-09-11T11:27:17.701Z,6.30
2023-09-11T11:29:44.569Z,6.60
2023-09-11T11:32:13.516Z,6.13
2023-09-11T11:34:42.901Z,5.80
2023-09-11T11:37:12.021Z,5.82
2023-09-11T11:39:39.157Z,5.88
2023-09-11T11:42:08.317Z,5.95
2023-09-11T11:44:36.968Z,5.70
2023-09-11T11:47:04.523Z,6.50
2023-09-11T11:49:31.664Z,5.40
2023-09-11T11:52:03.113Z,5.50
2023-09-11T11:54:31.043Z,6.68
2023-09-11T11:56:59.569Z,5.95
2023-09-11T11:59:40.666Z,6.13
2023-09-11T12:02:20.672Z,10.00
2023-09-11T12:04:50.082Z,5.70
2023-09-11T12:07:18.106Z,5.97
2023-09-11T12:09:45.550Z,5.80
2023-09-11T12:12:12.558Z,6.00
2023-09-11T12:14:40.549Z,6.40
2023-09-11T12:17:11.342Z,6.30
2023-09-11T12:19:38.202Z,5.63
2023-09-11T12:22:06.128Z,7.18
2023-09-11T12:24:33.077Z,6.32
2023-09-11T12:27:01.341Z,6.32
2023-09-11T12:29:31.222Z,6.90
2023-09-11T12:31:58.933Z,7.00
2023-09-11T12:34:25.814Z,7.10
2023-09-11T12:36:52.730Z,6.40
2023-09-11T12:39:19.983Z,7.00
2023-09-11T12:41:47.501Z,8.15
2023-09-11T12:44:14.424Z,7.45
2023-09-11T12:46:41.297Z,7.70
2023-09-11T12:49:08.225Z,6.95
2023-09-11T12:51:35.288Z,6.07
2023-09-11T12:54:03.613Z,6.30
2023-09-11T12:56:32.640Z,6.18
2023-09-11T12:58:59.867Z,6.25
2023-09-11T13:01:33.658Z,6.32
2023-09-11T13:04:00.756Z,7.40
2023-09-11T13:06:32.427Z,7.28
2023-09-11T13:08:59.256Z,6.47
2023-09-11T13:11:26.904Z,7.88
2023-09-11T13:14:08.325Z,5.95
2023-09-11T13:16:41.497Z,5.72
2023-09-11T13:19:08.333Z,6.90
2023-09-11T13:21:35.150Z,6.90
2023-09-11T13:24:02.234Z,7.10
2023-09-11T13:26:29.804Z,7.80
2023-09-11T13:28:56.536Z,7.53
2023-09-11T13:31:23.326Z,6.68
2023-09-11T13:33:51.529Z,6.45
2023-09-11T13:36:18.517Z,6.95
2023-09-11T13:38:45.765Z,6.47
2023-09-11T13:41:12.782Z,6.95
2023-09-11T13:43:39.876Z,6.57
2023-09-11T13:46:07.200Z,6.75
2023-09-11T13:48:34.246Z,7.05
2023-09-11T13:51:01.280Z,7.43
2023-09-11T13:53:28.190Z,5.57
2023-09-11T13:55:54.994Z,7.22
2023-09-11T13:58:21.767Z,6.35
2023-09-11T14:00:48.536Z,6.47
2023-09-11T14:03:15.916Z,6.28
2023-09-11T14:05:46.585Z,5.93
2023-09-11T14:08:14.900Z,5.60
2023-09-11T14:10:41.737Z,6.55
2023-09-11T14:13:11.781Z,5.72
2023-09-11T14:15:39.557Z,6.22
2023-09-11T14:18:07.074Z,5.50
2023-09-11T14:20:34.142Z,5.60
2023-09-11T14:23:00.965Z,5.88
2023-09-11T14:25:27.741Z,6.55
2023-09-11T14:27:54.518Z,5.82
2023-09-11T14:30:21.398Z,6.43
2023-09-11T14:32:48.384Z,6.00
2023-09-11T14:35:15.305Z,5.82
2023-09-11T14:37:42.260Z,6.93
2023-09-11T14:40:11.238Z,5.55
2023-09-11T14:42:38.139Z,6.10
2023-09-11T14:45:06.656Z,6.13
2023-09-11T14:47:33.654Z,6.10
2023-09-11T14:50:02.102Z,6.13
2023-09-11T14:52:29.550Z,9.13
2023-09-11T14:54:56.377Z,7.32
2023-09-11T14:57:23.639Z,5.47
2023-09-11T14:59:50.706Z,6.13
2023-09-11T15:02:17.805Z,6.00
2023-09-11T15:04:51.039Z,6.85
2023-09-11T15:07:20.379Z,5.63
2023-09-11T15:09:48.667Z,5.45
2023-09-11T15:12:15.935Z,5.95
2023-09-11T15:14:43.439Z,5.60
2023-09-11T15:17:10.957Z,6.15
2023-09-11T15:19:38.073Z,5.45
2023-09-11T15:22:08.493Z,5.18
2023-09-11T15:24:36.377Z,5.43
2023-09-11T15:27:04.762Z,8.68
2023-09-11T15:29:31.720Z,7.03
2023-09-11T15:32:11.232Z,5.85
2023-09-11T15:34:42.084Z,6.47
2023-09-11T15:37:16.277Z,5.53
2023-09-11T15:39:44.021Z,6.68
2023-09-11T15:42:11.135Z,6.40
2023-09-11T15:44:38.229Z,6.28
2023-09-11T15:47:05.258Z,5.97
2023-09-11T15:49:31.987Z,7.45
2023-09-11T15:52:05.456Z,6.75
2023-09-11T15:54:34.383Z,6.22
2023-09-11T15:57:01.539Z,5.60
2023-09-11T15:59:28.638Z,5.80
2023-09-11T16:01:55.356Z,6.00
2023-09-11T16:04:22.326Z,6.72
2023-09-11T16:06:49.289Z,7.13
2023-09-11T16:09:16.251Z,5.97
2023-09-11T16:11:43.357Z,5.88
2023-09-11T16:14:10.307Z,5.40
2023-09-11T16:16:38.379Z,5.85
2023-09-11T16:19:05.286Z,5.05
2023-09-11T16:21:40.196Z,5.25
2023-09-11T16:24:09.060Z,5.57
2023-09-11T16:26:37.098Z,7.57
2023-09-11T16:29:03.869Z,6.70
2023-09-11T16:33:58.740Z,5.90
2023-09-11T16:36:25.991Z,12.27
2023-09-11T16:38:53.028Z,6.45
2023-09-11T16:43:46.659Z,6.40
2023-09-11T16:48:40.754Z,6.57
2023-09-11T16:51:08.047Z,8.25
2023-09-11T16:53:35.027Z,7.93
2023-09-11T16:56:01.805Z,6.93
2023-09-11T17:03:31.200Z,7.32
2023-09-11T17:05:58.189Z,6.78
2023-09-11T17:08:25.089Z,7.38
2023-09-11T17:13:21.175Z,8.73
2023-09-11T17:15:48.115Z,7.20
2023-09-11T17:18:15.366Z,6.38
2023-09-11T17:20:43.129Z,7.53
2023-09-11T17:23:11.900Z,7.07
2023-09-11T17:25:39.027Z,6.90
2023-09-11T17:28:05.952Z,7.18
2023-09-11T17:30:32.824Z,6.97
2023-09-11T17:32:59.686Z,7.35
2023-09-11T17:35:26.572Z,7.32
2023-09-11T17:37:53.311Z,7.55
2023-09-11T17:40:20.190Z,7.80
2023-09-11T17:42:47.351Z,6.95
2023-09-11T17:50:08.709Z,7.38
2023-09-11T17:52:35.852Z,8.60
2023-09-11T17:58:41.430Z,9.25
2023-09-11T18:01:08.446Z,8.85
2023-09-11T18:03:35.587Z,7.93
2023-09-11T18:06:02.582Z,8.52
2023-09-11T18:08:29.371Z,8.30
2023-09-11T18:10:56.157Z,7.20
2023-09-11T18:13:22.996Z,7.78
2023-09-11T18:15:51.132Z,7.80
2023-09-11T18:18:18.046Z,7.68
2023-09-11T18:20:45.814Z,8.48
2023-09-11T18:23:12.927Z,8.45
2023-09-11T18:25:40.373Z,8.68
2023-09-11T18:28:07.243Z,8.20
2023-09-11T18:30:34.529Z,8.55
2023-09-11T18:33:02.552Z,8.18
2023-09-11T18:35:29.842Z,8.43
2023-09-11T18:40:23.343Z,8.55
2023-09-11T18:42:50.236Z,9.40
2023-09-11T18:45:17.409Z,9.20
2023-09-11T18:52:38.192Z,8.93
2023-09-11T18:55:05.683Z,8.23
2023-09-11T18:57:32.918Z,8.65
2023-09-11T19:02:26.821Z,8.55
2023-09-11T19:04:53.645Z,8.95
2023-09-11T19:07:20.459Z,8.82
2023-09-11T19:09:47.669Z,9.27
2023-09-11T19:14:41.176Z,9.73
2023-09-11T19:17:07.884Z,9.98
2023-09-11T19:19:36.350Z,10.20
2023-09-11T19:22:07.338Z,9.00
2023-09-11T19:24:34.614Z,9.50
2023-09-11T19:29:28.693Z,9.10
2023-09-11T19:34:23.052Z,9.00
2023-09-11T19:36:49.904Z,9.07
2023-09-11T19:39:17.298Z,9.85
2023-09-11T19:41:44.385Z,9.10
2023-09-11T19:44:13.779Z,9.70
2023-09-11T19:46:41.166Z,9.68
2023-09-11T19:49:07.992Z,9.50
2023-09-11T19:51:35.020Z,9.93
2023-09-11T19:54:01.868Z,10.25
2023-09-11T19:56:28.829Z,11.38
2023-09-11T19:58:55.589Z,10.85
2023-09-11T20:01:22.574Z,9.48
2023-09-11T20:03:49.578Z,9.70
2023-09-11T20:06:16.623Z,10.35
2023-09-11T20:08:43.739Z,10.70
2023-09-11T20:13:37.783Z,10.73
2023-09-11T20:16:05.787Z,12.13
2023-09-11T20:18:33.523Z,11.10
2023-09-11T20:21:01.095Z,11.00
2023-09-11T20:23:27.953Z,10.93
2023-09-11T20:25:54.935Z,10.85
2023-09-11T20:28:21.701Z,10.73
2023-09-11T20:30:48.534Z,10.52
2023-09-11T20:33:15.347Z,10.95
2023-09-11T20:35:42.188Z,11.23
2023-09-11T20:38:08.944Z,11.40
2023-09-11T20:40:35.709Z,11.45
2023-09-11T20:43:03.733Z,12.77
2023-09-11T20:45:30.786Z,12.75
2023-09-11T20:47:57.846Z,16.48
2023-09-11T20:50:24.674Z,22.27
2023-09-11T20:52:51.528Z,13.43
2023-09-11T20:55:18.519Z,11.43
2023-09-11T20:57:47.999Z,16.02
2023-09-11T21:00:15.563Z,12.18
2023-09-11T21:02:42.463Z,11.43
2023-09-11T21:05:09.378Z,11.77
2023-09-11T21:07:36.248Z,11.43
2023-09-11T21:10:03.233Z,11.20
2023-09-11T21:12:30.029Z,11.20
2023-09-11T21:14:57.025Z,10.43
2023-09-11T21:17:23.788Z,10.23
2023-09-11T21:19:50.525Z,10.48
2023-09-11T21:22:17.914Z,10.60
2023-09-11T21:27:11.469Z,10.07
2023-09-11T21:29:38.325Z,9.63
2023-09-11T21:32:05.497Z,9.65
2023-09-11T21:34:32.392Z,9.65
2023-09-11T21:37:00.835Z,10.40
2023-09-11T21:39:27.653Z,9.40
2023-09-11T21:41:54.504Z,10.35
2023-09-11T21:44:21.350Z,11.98
2023-09-11T21:46:48.284Z,10.98
2023-09-11T21:49:15.197Z,11.38
2023-09-11T21:51:42.043Z,12.02
2023-09-11T21:54:15.159Z,12.75
2023-09-11T21:56:43.150Z,11.98
2023-09-11T21:59:10.037Z,13.80
2023-09-11T22:01:37.325Z,12.25
2023-09-11T22:04:04.778Z,14.52
2023-09-11T22:06:31.779Z,13.30
2023-09-11T22:08:58.568Z,13.00
2023-09-11T22:11:25.439Z,12.52
2023-09-11T22:13:52.381Z,12.95
2023-09-11T22:16:19.576Z,13.70
2023-09-11T22:18:46.662Z,13.38
2023-09-11T22:21:13.509Z,13.27
2023-09-11T22:23:40.896Z,13.50
2023-09-11T22:26:07.787Z,13.88
2023-09-11T22:28:34.646Z,12.93
2023-09-11T22:31:01.627Z,12.90
2023-09-11T22:33:28.459Z,12.90
2023-09-11T22:35:55.660Z,14.35
2023-09-11T22:38:22.437Z,14.55
2023-09-11T22:40:49.217Z,13.77
2023-09-11T22:43:16.127Z,14.15
2023-09-11T22:45:42.975Z,13.82
2023-09-11T22:48:09.933Z,13.70
2023-09-11T22:50:38.880Z,13.73
2023-09-11T22:53:06.230Z,13.98
2023-09-11T22:55:37.323Z,13.23
2023-09-11T22:58:05.054Z,12.32
2023-09-11T23:00:36.069Z,12.57
2023-09-11T23:03:05.673Z,11.95
2023-09-11T23:05:32.875Z,11.07
2023-09-11T23:08:00.690Z,11.65
2023-09-11T23:10:28.894Z,11.63
2023-09-11T23:12:55.857Z,10.77
2023-09-11T23:15:22.953Z,10.20
2023-09-11T23:17:49.996Z,9.95
2023-09-11T23:20:17.173Z,10.32
2023-09-11T23:22:43.985Z,10.70
2023-09-11T23:25:10.899Z,10.80
2023-09-11T23:27:38.197Z,11.57
2023-09-11T23:30:06.102Z,11.13
2023-09-11T23:32:33.140Z,10.38
2023-09-11T23:35:00.014Z,10.38
2023-09-11T23:37:28.674Z,9.93
2023-09-11T23:39:55.400Z,9.82
2023-09-11T23:42:22.220Z,8.90
2023-09-11T23:44:49.297Z,9.55
2023-09-11T23:47:16.143Z,9.23
2023-09-11T23:49:42.933Z,8.93
2023-09-11T23:52:23.870Z,8.23
2023-09-11T23:54:54.307Z,8.75
